This is the latest recevied weather packets stored in our database for station/object G6FCI. If no packets are shown the sender has not sent any weather packets the latest 10 day(s).
| Time | Temp. | Humidity | Pressure | Rain* | Wind** | Luminosity | Snow |
|---|---|---|---|---|---|---|---|
| 1777686843 | 10° C | 78% | 1017.5 hPa | 0.25 mm | - | - | - |
| 1777685223 | 10° C | 78% | 1017.7 hPa | 0 mm | - | - | - |
| 1777684143 | 10.56° C | 77% | 1017.8 hPa | 0 mm | - | - | - |
| 1777683603 | 10.56° C | 77% | 1017.8 hPa | 0 mm | - | - | - |
| 1777683243 | 10.56° C | 78% | 1017.9 hPa | 0 mm | - | - | - |
| 1777682163 | 10.56° C | 78% | 1018 hPa | 0 mm | - | - | - |
| 1777679643 | 9.44° C | 77% | 1018.1 hPa | 0 mm | - | - | - |
| 1777676943 | 10° C | 77% | 1018.3 hPa | 0 mm | - | - | - |
| 1777674963 | 10° C | 77% | 1018.4 hPa | 0 mm | - | - | - |
| 1777673343 | 10.56° C | 76% | 1018.3 hPa | 0 mm | - | - | - |
| 1777672804 | 10.56° C | 76% | 1018.3 hPa | 0 mm | - | - | - |
| 1777666143 | 11.67° C | 76% | 1018.5 hPa | 0 mm | - | - | - |
| 1777665603 | 11.67° C | 76% | 1018.6 hPa | 0 mm | - | - | - |
| 1777663623 | 12.22° C | 76% | 1018.5 hPa | 0 mm | - | - | - |
| 1777662543 | 12.22° C | 76% | 1018.6 hPa | 0.51 mm | - | - | - |
| 1777661643 | 12.22° C | 76% | 1018.7 hPa | 0.76 mm | - | - | - |
| 1777655883 | 12.78° C | 74% | 1018.5 hPa | 0.25 mm | - | - | - |
| 1777654443 | 12.22° C | 74% | 1018.5 hPa | 0 mm | - | - | - |
| 1777653903 | 12.22° C | 74% | 1018.6 hPa | 0 mm | - | - | - |
| 1777647603 | 12.78° C | 72% | 1018.9 hPa | 0.51 mm | - | - | - |
| 1777647243 | 12.78° C | 72% | 1019 hPa | 0.51 mm | - | - | - |
| 1777640943 | 13.89° C | 81% | 1019.1 hPa | 0 mm | - | - | - |
| 1777635903 | 18.89° C | 69% | 1018.9 hPa | 0 mm | - | - | - |
| 1777635363 | 19.44° C | 67% | 1018.8 hPa | 0 mm | - | - | - |
| 1777633203 | 20° C | 65% | 1018.6 hPa | 0 mm | - | - | - |
* Rain latest hour (hover to see other rain measurements)
** Current wind speed in m/s (hover to see current wind gust speed)